createdAt,value
2023-01-10T00:01:38.151Z,100274.00
2023-01-10T00:04:04.713Z,100276.34
2023-01-10T00:06:31.116Z,100280.56
2023-01-10T00:08:57.661Z,100284.75
2023-01-10T00:11:43.210Z,100290.78
2023-01-10T00:14:11.223Z,100290.47
2023-01-10T00:16:39.300Z,100302.00
2023-01-10T00:19:07.137Z,100307.91
2023-01-10T00:21:33.467Z,100313.94
2023-01-10T00:24:16.630Z,100310.25
2023-01-10T00:26:45.562Z,100319.81
2023-01-10T00:29:12.199Z,100324.00
2023-01-10T00:31:38.535Z,100321.16
2023-01-10T00:34:05.096Z,100332.56
2023-01-10T00:36:31.431Z,100329.88
2023-01-10T00:38:57.819Z,100343.09
2023-01-10T00:41:42.829Z,100344.78
2023-01-10T00:44:09.289Z,100358.84
2023-01-10T00:46:35.830Z,100358.84
2023-01-10T00:49:05.403Z,100363.38
2023-01-10T00:51:31.764Z,100377.44
2023-01-10T00:53:58.168Z,100377.44
2023-01-10T00:56:24.505Z,100378.25
2023-01-10T00:58:50.938Z,100389.09
2023-01-10T01:01:17.524Z,100393.47
2023-01-10T01:03:43.928Z,100388.28
2023-01-10T01:06:10.332Z,100401.66
2023-01-10T01:08:36.770Z,100402.81
2023-01-10T01:11:03.172Z,100404.78
2023-01-10T01:13:29.740Z,100414.78
2023-01-10T01:16:00.277Z,100421.47
2023-01-10T01:18:27.345Z,100428.09
2023-01-10T01:20:57.971Z,100434.75
2023-01-10T01:23:24.711Z,100441.56
2023-01-10T01:25:54.436Z,100446.34
2023-01-10T01:28:21.902Z,100456.81
2023-01-10T01:30:49.260Z,100464.47
2023-01-10T01:33:16.420Z,100474.75
2023-01-10T01:35:44.217Z,100482.38
2023-01-10T01:38:11.092Z,100485.66
2023-01-10T01:40:41.671Z,100481.56
2023-01-10T01:43:31.978Z,100497.06
2023-01-10T01:46:02.820Z,100501.72
2023-01-10T01:48:41.317Z,100508.91
2023-01-10T01:51:20.698Z,100508.91
2023-01-10T01:53:56.993Z,100511.41
2023-01-10T01:56:30.487Z,100504.91
2023-01-10T01:59:06.643Z,100513.63
2023-01-10T02:01:34.011Z,100517.88
2023-01-10T02:04:08.545Z,100518.59
2023-01-10T02:06:34.945Z,100518.28
2023-01-10T02:09:32.450Z,100527.84
2023-01-10T02:11:59.147Z,100526.00
2023-01-10T02:14:26.500Z,100531.22
2023-01-10T02:16:52.937Z,100530.22
2023-01-10T02:19:43.262Z,100526.53
2023-01-10T02:22:27.893Z,100533.72
2023-01-10T02:25:23.116Z,100536.97
2023-01-10T02:28:14.411Z,100533.41
2023-01-10T02:31:19.509Z,100538.63
2023-01-10T02:33:51.829Z,100539.63
2023-01-10T02:36:56.584Z,100537.94
2023-01-10T02:39:36.229Z,100551.16
2023-01-10T02:42:13.519Z,100558.34
2023-01-10T02:45:19.984Z,100549.31
2023-01-10T02:47:46.428Z,100554.81
2023-01-10T02:50:44.970Z,100552.84
2023-01-10T02:53:11.334Z,100555.66
2023-01-10T02:56:01.724Z,100560.00
2023-01-10T02:58:40.269Z,100560.00
2023-01-10T03:01:26.661Z,100559.31
2023-01-10T03:04:11.922Z,100568.34
2023-01-10T03:07:07.733Z,100556.94
2023-01-10T03:09:40.143Z,100566.25
2023-01-10T03:12:18.432Z,100567.22
2023-01-10T03:14:47.232Z,100575.56
2023-01-10T03:17:15.831Z,100584.56
2023-01-10T03:19:47.362Z,100581.03
2023-01-10T03:22:14.847Z,100582.16
2023-01-10T03:24:46.773Z,100585.53
2023-01-10T03:27:57.756Z,100597.06
2023-01-10T03:30:41.635Z,100611.31
2023-01-10T03:33:08.355Z,100610.44
2023-01-10T03:35:57.597Z,100615.94
2023-01-10T03:38:43.917Z,100630.16
2023-01-10T03:41:10.247Z,100629.16
2023-01-10T03:44:02.295Z,100636.34
2023-01-10T03:46:46.879Z,100634.22
2023-01-10T03:49:15.004Z,100644.78
2023-01-10T03:51:42.485Z,100656.03
2023-01-10T03:54:09.100Z,100653.94
2023-01-10T03:56:50.705Z,100656.91
2023-01-10T03:59:20.530Z,100662.66
2023-01-10T04:01:47.288Z,100657.75
2023-01-10T04:04:14.063Z,100662.53
2023-01-10T04:06:41.667Z,100665.63
2023-01-10T04:09:08.498Z,100666.91
2023-01-10T04:11:35.031Z,100672.78
2023-01-10T04:14:01.424Z,100676.75
2023-01-10T04:16:27.858Z,100681.66
2023-01-10T04:18:54.299Z,100685.56
2023-01-10T04:21:21.191Z,100688.53
2023-01-10T04:23:47.684Z,100688.81
2023-01-10T04:26:14.212Z,100689.81
2023-01-10T04:28:40.701Z,100689.09
2023-01-10T04:31:08.093Z,100687.38
2023-01-10T04:33:34.583Z,100692.03
2023-01-10T04:36:01.045Z,100699.22
2023-01-10T04:38:27.456Z,100703.97
2023-01-10T04:40:56.237Z,100700.59
2023-01-10T04:43:24.168Z,100703.53
2023-01-10T04:45:50.788Z,100701.16
2023-01-10T04:48:17.472Z,100709.28
2023-01-10T04:50:49.338Z,100708.31
2023-01-10T04:53:15.685Z,100711.81
2023-01-10T04:55:42.350Z,100717.16
2023-01-10T04:58:08.780Z,100722.22
2023-01-10T05:00:35.103Z,100718.59
2023-01-10T05:03:01.561Z,100728.00
2023-01-10T05:05:28.509Z,100725.91
2023-01-10T05:07:54.860Z,100732.78
2023-01-10T05:10:21.187Z,100736.88
2023-01-10T05:12:47.574Z,100740.25
2023-01-10T05:15:13.952Z,100743.63
2023-01-10T05:17:40.709Z,100749.53
2023-01-10T05:20:07.493Z,100750.38
2023-01-10T05:22:34.054Z,100747.59
2023-01-10T05:25:00.556Z,100752.09
2023-01-10T05:27:26.920Z,100752.09
2023-01-10T05:29:53.315Z,100754.88
2023-01-10T05:32:19.747Z,100765.69
2023-01-10T05:34:46.089Z,100770.19
2023-01-10T05:37:12.498Z,100775.69
2023-01-10T05:39:39.981Z,100775.69
2023-01-10T05:42:06.426Z,100786.22
2023-01-10T05:44:32.789Z,100782.56
2023-01-10T05:46:59.153Z,100781.47
2023-01-10T05:49:25.503Z,100782.13
2023-01-10T05:51:51.956Z,100788.06
2023-01-10T05:54:18.704Z,100793.97
2023-01-10T05:56:45.025Z,100800.75
2023-01-10T05:59:23.751Z,100805.81
2023-01-10T06:01:54.121Z,100811.84
2023-01-10T06:04:20.523Z,100816.03
2023-01-10T06:06:46.855Z,100807.78
2023-01-10T06:09:13.166Z,100811.28
2023-01-10T06:11:39.640Z,100814.69
2023-01-10T06:14:07.687Z,100820.72
2023-01-10T06:16:34.094Z,100816.22
2023-01-10T06:19:00.479Z,100826.75
2023-01-10T06:21:26.866Z,100835.63
2023-01-10T06:23:53.276Z,100833.81
2023-01-10T06:26:19.667Z,100841.84
2023-01-10T06:28:46.080Z,100850.69
2023-01-10T06:31:14.826Z,100855.19
2023-01-10T06:33:41.580Z,100858.69
2023-01-10T06:36:08.653Z,100861.22
2023-01-10T06:38:35.117Z,100852.25
2023-01-10T06:41:12.834Z,100866.31
2023-01-10T06:43:45.307Z,100866.88
2023-01-10T06:46:16.685Z,100858.69
2023-01-10T06:48:45.445Z,100868.44
2023-01-10T06:51:13.686Z,100866.72
2023-01-10T06:53:40.550Z,100869.97
2023-01-10T06:56:08.813Z,100876.28
2023-01-10T06:58:38.474Z,100876.28
2023-01-10T07:01:13.893Z,100878.97
2023-01-10T07:03:49.555Z,100885.16
2023-01-10T07:06:16.164Z,100891.47
2023-01-10T07:08:46.793Z,100907.38
2023-01-10T07:11:17.624Z,100911.91
2023-01-10T07:13:44.167Z,100909.22
2023-01-10T07:16:14.256Z,100893.03
2023-01-10T07:18:42.229Z,100882.22
2023-01-10T07:21:10.011Z,100899.94
2023-01-10T07:23:36.745Z,100906.00
2023-01-10T07:26:10.151Z,100904.88
2023-01-10T07:28:37.283Z,100911.91
2023-01-10T07:31:05.785Z,100912.78
2023-01-10T07:33:32.360Z,100917.25
2023-01-10T07:36:00.578Z,100921.63
2023-01-10T07:38:27.126Z,100931.47
2023-01-10T07:40:53.571Z,100927.09
2023-01-10T07:43:20.003Z,100935.13
2023-01-10T07:45:46.834Z,100935.94
2023-01-10T07:48:13.227Z,100938.63
2023-01-10T07:50:40.034Z,100945.69
2023-01-10T07:53:07.604Z,100953.81
2023-01-10T07:55:38.747Z,100955.53
2023-01-10T07:58:07.872Z,100961.72
2023-01-10T08:00:35.262Z,100967.06
2023-01-10T08:03:01.998Z,100971.56
2023-01-10T08:05:28.640Z,100975.09
2023-01-10T08:07:59.807Z,100975.09
2023-01-10T08:10:27.191Z,100982.94
2023-01-10T08:12:53.592Z,100991.97
2023-01-10T08:15:20.121Z,100993.63
2023-01-10T08:17:46.610Z,100997.16
2023-01-10T08:20:13.000Z,100990.00
2023-01-10T08:22:39.426Z,100988.16
2023-01-10T08:25:06.146Z,100982.66
2023-01-10T08:27:32.599Z,100993.38
2023-01-10T08:29:59.580Z,100980.88
2023-01-10T08:32:32.093Z,100985.94
2023-01-10T08:34:58.468Z,100977.06
2023-01-10T08:37:24.840Z,100986.78
2023-01-10T08:39:51.227Z,100989.34
2023-01-10T08:42:18.691Z,100997.22
2023-01-10T08:44:45.215Z,100993.59
2023-01-10T08:47:11.669Z,100996.81
2023-01-10T08:49:38.000Z,100999.22
2023-01-10T08:52:04.440Z,101006.13
2023-01-10T08:54:30.881Z,100996.16
2023-01-10T08:56:57.201Z,100994.19
2023-01-10T08:59:23.530Z,100992.19
2023-01-10T09:01:50.011Z,101000.94
2023-01-10T09:04:17.208Z,101006.00
2023-01-10T09:06:43.641Z,101004.88
2023-01-10T09:09:10.276Z,101006.44
2023-01-10T09:11:36.708Z,101013.34
2023-01-10T09:14:03.110Z,101012.22
2023-01-10T09:16:29.504Z,101028.00
2023-01-10T09:18:56.260Z,101026.03
2023-01-10T09:21:22.669Z,101028.59
2023-01-10T09:23:49.076Z,101032.81
2023-01-10T09:26:15.431Z,101026.34
2023-01-10T09:28:41.848Z,101026.34
2023-01-10T09:31:08.887Z,101031.53
2023-01-10T09:33:46.204Z,101024.34
2023-01-10T09:36:15.333Z,101023.38
2023-01-10T09:38:41.926Z,101025.91
2023-01-10T09:41:22.809Z,101025.78
2023-01-10T09:44:04.741Z,101033.81
2023-01-10T09:46:42.754Z,101041.69
2023-01-10T09:49:26.867Z,101048.72
2023-01-10T09:51:58.907Z,101051.28
2023-01-10T09:54:29.259Z,101046.63
2023-01-10T09:56:56.397Z,101059.03
2023-01-10T09:59:43.125Z,101067.63
2023-01-10T10:02:32.724Z,101064.66
2023-01-10T10:05:09.890Z,101067.06
2023-01-10T10:07:36.811Z,101064.13
2023-01-10T10:10:06.016Z,101069.91
2023-01-10T10:12:41.449Z,101066.94
2023-01-10T10:15:39.309Z,101060.19
2023-01-10T10:18:14.772Z,101063.41
2023-01-10T10:21:03.344Z,101052.41
2023-01-10T10:23:41.540Z,101054.84
2023-01-10T10:26:11.040Z,101063.56
2023-01-10T10:28:53.884Z,101062.59
2023-01-10T10:31:43.020Z,101064.44
2023-01-10T10:34:37.460Z,101059.91
2023-01-10T10:37:33.770Z,101065.28
2023-01-10T10:40:07.783Z,101064.44
2023-01-10T10:42:39.796Z,101060.03
2023-01-10T10:45:17.373Z,101060.88
2023-01-10T10:47:50.341Z,101057.22
2023-01-10T10:50:35.710Z,101060.59
2023-01-10T10:53:04.098Z,101049.63
2023-01-10T10:55:36.463Z,101054.53
2023-01-10T10:58:05.465Z,101051.44
2023-01-10T11:00:31.974Z,101050.03
2023-01-10T11:03:13.068Z,101049.31
2023-01-10T11:05:43.176Z,101047.75
2023-01-10T11:08:16.180Z,101041.81
2023-01-10T11:10:47.010Z,101039.56
2023-01-10T11:13:27.567Z,101037.00
2023-01-10T11:15:56.091Z,101026.69
2023-01-10T11:18:25.975Z,101017.22
2023-01-10T11:20:52.400Z,101009.56
2023-01-10T11:23:52.958Z,101008.13
2023-01-10T11:26:35.752Z,101003.19
2023-01-10T11:29:33.846Z,101023.34
2023-01-10T11:32:10.060Z,101010.50
2023-01-10T11:34:37.552Z,101017.44
2023-01-10T11:37:18.008Z,101017.13
2023-01-10T11:39:44.586Z,101027.59
2023-01-10T11:42:30.752Z,101019.94
2023-01-10T11:45:18.696Z,101015.41
2023-01-10T11:47:50.422Z,101017.94
2023-01-10T11:50:28.742Z,101007.19
2023-01-10T11:52:56.437Z,101008.06
2023-01-10T11:55:26.326Z,101008.75
2023-01-10T11:58:13.591Z,100990.53
2023-01-10T12:00:43.865Z,100992.91
2023-01-10T12:03:32.711Z,100994.28
2023-01-10T12:06:08.299Z,100988.63
2023-01-10T12:08:36.853Z,101004.56
2023-01-10T12:11:07.057Z,101001.75
2023-01-10T12:13:44.568Z,101009.63
2023-01-10T12:16:26.156Z,101002.44
2023-01-10T12:18:59.905Z,101005.13
2023-01-10T12:21:40.828Z,100996.91
2023-01-10T12:24:26.625Z,101001.44
2023-01-10T12:26:53.784Z,100997.75
2023-01-10T12:29:25.432Z,101000.31
2023-01-10T12:31:54.706Z,100994.09
2023-01-10T12:34:25.261Z,101000.31
2023-01-10T12:37:14.693Z,101000.13
2023-01-10T12:39:46.735Z,101000.13
2023-01-10T12:42:44.737Z,101001.97
2023-01-10T12:45:23.669Z,100991.25
2023-01-10T12:48:05.502Z,100989.41
2023-01-10T12:50:39.024Z,100983.38
2023-01-10T12:53:24.747Z,100973.59
2023-01-10T12:55:56.681Z,100965.88
2023-01-10T12:58:48.213Z,100964.19
2023-01-10T13:01:21.591Z,100976.91
2023-01-10T13:03:56.064Z,100973.69
2023-01-10T13:06:35.147Z,100959.72
2023-01-10T13:09:20.044Z,100958.34
2023-01-10T13:12:02.396Z,100960.47
2023-01-10T13:14:37.469Z,100960.63
2023-01-10T13:17:27.970Z,100955.56
2023-01-10T13:20:16.225Z,100946.81
2023-01-10T13:22:45.056Z,100951.34
2023-01-10T13:25:22.303Z,100949.81
2023-01-10T13:27:57.411Z,100946.44
2023-01-10T13:30:32.274Z,100950.09
2023-01-10T13:33:27.570Z,100955.63
2023-01-10T13:35:58.566Z,100950.38
2023-01-10T13:38:34.583Z,100953.06
2023-01-10T13:41:08.466Z,100941.78
2023-01-10T13:44:02.183Z,100936.41
2023-01-10T13:46:31.705Z,100934.75
2023-01-10T13:49:00.287Z,100939.22
2023-01-10T13:51:27.923Z,100934.88
2023-01-10T13:53:57.136Z,100926.00
2023-01-10T13:56:38.518Z,100926.00
2023-01-10T13:59:17.521Z,100924.47
2023-01-10T14:02:08.339Z,100919.22
2023-01-10T14:04:46.486Z,100915.72
2023-01-10T14:07:33.456Z,100910.50
2023-01-10T14:10:07.387Z,100908.94
2023-01-10T14:12:48.847Z,100902.91
2023-01-10T14:15:37.162Z,100897.56
2023-01-10T14:18:05.835Z,100897.69
2023-01-10T14:20:35.331Z,100892.50
2023-01-10T14:23:08.241Z,100880.06
2023-01-10T14:25:36.754Z,100882.75
2023-01-10T14:28:05.351Z,100884.59
2023-01-10T14:30:38.433Z,100888.13
2023-01-10T14:33:13.751Z,100874.72
2023-01-10T14:35:47.097Z,100872.19
2023-01-10T14:38:34.937Z,100864.28
2023-01-10T14:41:11.480Z,100861.63
2023-01-10T14:43:44.608Z,100860.91
2023-01-10T14:46:13.646Z,100847.81
2023-01-10T14:48:51.943Z,100852.34
2023-01-10T14:51:21.533Z,100849.78
2023-01-10T14:53:56.572Z,100847.13
2023-01-10T14:56:30.364Z,100842.75
2023-01-10T14:58:56.821Z,100834.72
2023-01-10T15:01:26.827Z,100839.25
2023-01-10T15:03:54.238Z,100836.69
2023-01-10T15:06:21.068Z,100842.06
2023-01-10T15:08:59.662Z,100832.03
2023-01-10T15:11:27.904Z,100824.13
2023-01-10T15:14:00.122Z,100818.66
2023-01-10T15:16:28.594Z,100817.94
2023-01-10T15:18:56.465Z,100816.94
2023-01-10T15:21:24.291Z,100816.09
2023-01-10T15:23:50.752Z,100800.03
2023-01-10T15:26:21.522Z,100801.72
2023-01-10T15:29:24.139Z,100805.38
2023-01-10T15:31:53.308Z,100800.03
2023-01-10T15:34:22.804Z,100799.19
2023-01-10T15:37:01.836Z,100792.81
2023-01-10T15:39:35.560Z,100793.00
2023-01-10T15:42:08.430Z,100791.31
2023-01-10T15:44:48.504Z,100786.78
2023-01-10T15:47:36.246Z,100776.22
2023-01-10T15:50:28.283Z,100772.69
2023-01-10T15:52:58.781Z,100772.69
2023-01-10T15:55:38.655Z,100766.50
2023-01-10T15:58:27.465Z,100768.34
2023-01-10T16:00:56.320Z,100761.28
2023-01-10T16:03:32.004Z,100753.09
2023-01-10T16:06:00.138Z,100745.06
2023-01-10T16:08:35.279Z,100745.06
2023-01-10T16:11:05.258Z,100738.88
2023-01-10T16:13:33.093Z,100743.34
2023-01-10T16:16:02.141Z,100737.16
2023-01-10T16:18:28.742Z,100726.44
2023-01-10T16:20:58.476Z,100722.94
2023-01-10T16:23:30.370Z,100717.44
2023-01-10T16:26:00.154Z,100725.47
2023-01-10T16:28:29.005Z,100717.44
2023-01-10T16:30:55.377Z,100712.06
2023-01-10T16:33:27.662Z,100708.53
2023-01-10T16:35:56.401Z,100698.81
2023-01-10T16:38:24.030Z,100706.00
2023-01-10T16:40:58.894Z,100703.16
2023-01-10T16:43:26.944Z,100697.81
2023-01-10T16:46:00.020Z,100693.44
2023-01-10T16:48:29.064Z,100685.41
2023-01-10T16:51:05.600Z,100679.03
2023-01-10T16:53:31.982Z,100674.56
2023-01-10T16:55:58.420Z,100677.38
2023-01-10T16:58:24.865Z,100673.84
2023-01-10T17:00:52.432Z,100671.19
2023-01-10T17:03:22.663Z,100672.00
2023-01-10T17:05:49.759Z,100672.84
2023-01-10T17:08:20.596Z,100671.88
2023-01-10T17:10:50.956Z,100670.16
2023-01-10T17:13:23.437Z,100658.63
2023-01-10T17:15:49.916Z,100654.28
2023-01-10T17:18:16.320Z,100648.91
2023-01-10T17:20:42.746Z,100652.56
2023-01-10T17:23:12.031Z,100655.25
2023-01-10T17:25:38.515Z,100649.06
2023-01-10T17:28:05.069Z,100649.88
2023-01-10T17:30:31.559Z,100634.81
2023-01-10T17:32:58.611Z,100626.78
2023-01-10T17:35:28.337Z,100624.94
2023-01-10T17:37:54.921Z,100616.06
2023-01-10T17:40:21.313Z,100611.69
2023-01-10T17:42:47.677Z,100617.91
2023-01-10T17:45:14.259Z,100605.50
2023-01-10T17:47:40.612Z,100598.47
2023-01-10T17:50:07.152Z,100590.41
2023-01-10T17:52:33.538Z,100587.88
2023-01-10T17:54:59.913Z,100579.16
2023-01-10T17:57:26.335Z,100569.31
2023-01-10T17:59:52.710Z,100571.44
2023-01-10T18:02:19.288Z,100559.19
2023-01-10T18:04:45.909Z,100549.63
2023-01-10T18:07:14.684Z,100549.78
2023-01-10T18:09:41.093Z,100537.69
2023-01-10T18:12:07.650Z,100538.00
2023-01-10T18:14:37.313Z,100532.97
2023-01-10T18:17:06.531Z,100520.88
2023-01-10T18:19:34.412Z,100530.22
2023-01-10T18:22:01.209Z,100526.16
2023-01-10T18:24:27.582Z,100530.16
2023-01-10T18:26:54.271Z,100525.09
2023-01-10T18:29:21.058Z,100530.63
2023-01-10T18:31:47.385Z,100521.75
2023-01-10T18:34:13.734Z,100517.56
2023-01-10T18:36:40.949Z,100508.97
2023-01-10T18:39:07.267Z,100508.31
2023-01-10T18:41:33.609Z,100506.78
2023-01-10T18:44:00.636Z,100502.56
2023-01-10T18:46:28.494Z,100495.50
2023-01-10T18:48:55.025Z,100493.00
2023-01-10T18:51:22.867Z,100491.47
2023-01-10T18:53:49.353Z,100492.44
2023-01-10T18:56:17.047Z,100484.59
2023-01-10T18:58:43.958Z,100474.03
2023-01-10T19:01:16.767Z,100471.34
2023-01-10T19:03:43.587Z,100475.03
2023-01-10T19:06:12.347Z,100469.81
2023-01-10T19:08:39.439Z,100468.16
2023-01-10T19:11:13.971Z,100459.28
2023-01-10T19:13:41.650Z,100454.09
2023-01-10T19:16:14.016Z,100458.59
2023-01-10T19:18:41.045Z,100450.72
2023-01-10T19:21:14.751Z,100457.06
2023-01-10T19:23:42.410Z,100476.78
2023-01-10T19:26:08.830Z,100473.44
2023-01-10T19:28:35.534Z,100455.84
2023-01-10T19:31:05.008Z,100456.00
2023-01-10T19:33:34.999Z,100462.19
2023-01-10T19:36:07.867Z,100453.50
2023-01-10T19:38:34.886Z,100443.75
2023-01-10T19:41:02.134Z,100441.09
2023-01-10T19:43:28.924Z,100434.06
2023-01-10T19:45:55.630Z,100419.69
2023-01-10T19:48:23.238Z,100425.03
2023-01-10T19:50:49.689Z,100425.22
2023-01-10T19:53:16.069Z,100423.50
2023-01-10T19:55:42.465Z,100420.00
2023-01-10T19:58:08.985Z,100408.47
2023-01-10T20:00:35.346Z,100397.91
2023-01-10T20:03:01.796Z,100398.75
2023-01-10T20:05:28.301Z,100391.72
2023-01-10T20:07:54.650Z,100389.03
2023-01-10T20:10:20.996Z,100384.53
2023-01-10T20:12:47.616Z,100381.72
2023-01-10T20:15:14.008Z,100379.88
2023-01-10T20:17:40.851Z,100377.19
2023-01-10T20:20:07.835Z,100378.88
2023-01-10T20:22:34.166Z,100370.84
2023-01-10T20:25:00.826Z,100368.16
2023-01-10T20:27:28.239Z,100366.19
2023-01-10T20:29:54.631Z,100361.66
2023-01-10T20:32:21.888Z,100361.53
2023-01-10T20:34:49.531Z,100353.50
2023-01-10T20:37:15.967Z,100355.16
2023-01-10T20:39:42.340Z,100350.69
2023-01-10T20:42:08.757Z,100347.00
2023-01-10T20:44:35.226Z,100349.53
2023-01-10T20:47:01.643Z,100339.47
2023-01-10T20:49:28.180Z,100337.63
2023-01-10T20:51:54.666Z,100330.31
2023-01-10T20:54:21.273Z,100330.16
2023-01-10T20:56:47.703Z,100319.47
2023-01-10T20:59:14.124Z,100326.31
2023-01-10T21:01:40.646Z,100329.84
2023-01-10T21:04:07.630Z,100313.63
2023-01-10T21:06:35.302Z,100326.00
2023-01-10T21:09:02.864Z,100325.88
2023-01-10T21:11:29.192Z,100318.50
2023-01-10T21:13:55.507Z,100313.84
2023-01-10T21:16:22.482Z,100313.69
2023-01-10T21:18:49.125Z,100309.84
2023-01-10T21:21:18.098Z,100309.00
2023-01-10T21:23:45.008Z,100309.84
2023-01-10T21:26:13.517Z,100314.34
2023-01-10T21:28:42.403Z,100312.69
2023-01-10T21:31:10.193Z,100311.84
2023-01-10T21:33:37.103Z,100303.97
2023-01-10T21:36:04.686Z,100297.78
2023-01-10T21:38:32.410Z,100298.78
2023-01-10T21:41:07.132Z,100286.22
2023-01-10T21:43:33.611Z,100287.38
2023-01-10T21:46:00.776Z,100289.38
2023-01-10T21:48:28.926Z,100286.69
2023-01-10T21:50:55.557Z,100275.03
2023-01-10T21:53:22.672Z,100270.66
2023-01-10T21:55:49.078Z,100273.31
2023-01-10T21:58:15.449Z,100274.16
2023-01-10T22:00:41.843Z,100275.84
2023-01-10T22:03:08.265Z,100273.19
2023-01-10T22:05:34.626Z,100274.69
2023-01-10T22:08:00.964Z,100270.19
2023-01-10T22:10:27.351Z,100267.31
2023-01-10T22:12:53.791Z,100262.84
2023-01-10T22:15:20.625Z,100255.63
2023-01-10T22:17:48.222Z,100255.47
2023-01-10T22:20:16.592Z,100252.63
2023-01-10T22:22:42.945Z,100232.88
2023-01-10T22:25:09.580Z,100235.28
2023-01-10T22:27:35.937Z,100232.41
2023-01-10T22:30:02.278Z,100223.22
2023-01-10T22:32:28.665Z,100214.22
2023-01-10T22:34:55.115Z,100212.19
2023-01-10T22:37:21.499Z,100213.72
2023-01-10T22:39:48.716Z,100212.53
2023-01-10T22:42:15.153Z,100211.38
2023-01-10T22:44:41.521Z,100205.88
2023-01-10T22:47:08.613Z,100222.31
2023-01-10T22:49:34.924Z,100208.72
2023-01-10T22:52:01.326Z,100197.88
2023-01-10T22:54:27.683Z,100206.59
2023-01-10T22:56:54.031Z,100200.06
2023-01-10T22:59:20.467Z,100193.53
2023-01-10T23:01:46.780Z,100192.38
2023-01-10T23:04:13.168Z,100191.22
2023-01-10T23:06:39.842Z,100191.72
2023-01-10T23:09:06.201Z,100198.44
2023-01-10T23:11:32.524Z,100184.84
2023-01-10T23:13:58.951Z,100187.19
2023-01-10T23:16:32.612Z,100191.56
2023-01-10T23:18:59.907Z,100186.03
2023-01-10T23:21:29.120Z,100181.50
2023-01-10T23:23:55.833Z,100175.16
2023-01-10T23:26:22.692Z,100177.66
2023-01-10T23:28:50.853Z,100174.81
2023-01-10T23:31:19.611Z,100172.97
2023-01-10T23:33:46.482Z,100155.91
2023-01-10T23:36:12.927Z,100153.88
2023-01-10T23:38:39.355Z,100163.63
2023-01-10T23:41:06.411Z,100152.72
2023-01-10T23:43:32.820Z,100166.78
2023-01-10T23:45:59.322Z,100157.59
2023-01-10T23:48:25.810Z,100162.78
2023-01-10T23:50:52.325Z,100162.59
2023-01-10T23:53:18.773Z,100155.91
2023-01-10T23:55:45.437Z,100149.41
2023-01-10T23:58:12.113Z,100146.53
